createdAt,value
2022-12-18T00:04:49.347Z,96917.88
2022-12-18T00:09:50.854Z,96915.19
2022-12-18T00:14:52.382Z,96927.78
2022-12-18T00:19:53.880Z,96938.00
2022-12-18T00:24:55.421Z,96946.59
2022-12-18T00:29:56.937Z,96939.13
2022-12-18T00:34:58.519Z,96956.81
2022-12-18T00:40:00.054Z,96977.97
2022-12-18T00:45:01.609Z,96976.06
2022-12-18T00:50:03.846Z,96976.06
2022-12-18T00:55:06.629Z,96968.84
2022-12-18T01:00:11.013Z,96955.94
2022-12-18T01:05:13.449Z,96946.84
2022-12-18T01:10:14.999Z,96947.91
2022-12-18T01:15:16.828Z,96968.56
2022-12-18T01:20:18.517Z,96961.31
2022-12-18T01:25:20.781Z,96967.97
2022-12-18T01:30:22.289Z,96956.47
2022-12-18T01:35:23.833Z,96984.88
2022-12-18T01:40:25.491Z,96978.72
2022-12-18T01:45:29.806Z,96992.09
2022-12-18T01:50:43.059Z,96996.41
2022-12-18T01:55:49.403Z,96993.44
2022-12-18T02:00:51.113Z,97001.19
2022-12-18T02:06:15.920Z,97001.19
2022-12-18T02:11:30.830Z,97006.84
2022-12-18T02:17:13.699Z,97004.16
2022-12-18T02:22:21.599Z,97003.66
2022-12-18T02:27:23.717Z,97004.44
2022-12-18T02:32:33.797Z,96994.00
2022-12-18T02:37:36.834Z,97000.16
2022-12-18T02:42:41.359Z,97004.72
2022-12-18T02:47:48.168Z,97008.72
2022-12-18T02:53:18.394Z,97002.28
2022-12-18T02:58:57.854Z,97001.19
2022-12-18T03:04:18.574Z,97002.00
2022-12-18T03:09:25.601Z,97001.72
2022-12-18T03:14:30.298Z,97000.94
2022-12-18T03:19:34.207Z,96994.47
2022-12-18T03:24:40.452Z,97006.81
2022-12-18T03:29:53.677Z,97001.16
2022-12-18T03:35:05.822Z,96993.91
2022-12-18T03:40:11.676Z,96997.09
2022-12-18T03:45:19.661Z,96987.69
2022-12-18T03:50:27.538Z,96987.69
2022-12-18T03:55:35.505Z,97003.25
2022-12-18T04:00:40.516Z,97012.97
2022-12-18T04:05:46.645Z,97010.59
2022-12-18T04:10:49.817Z,97009.28
2022-12-18T04:15:52.069Z,97012.25
2022-12-18T04:20:55.277Z,97021.09
2022-12-18T04:25:58.196Z,97014.13
2022-12-18T04:31:29.244Z,97031.84
2022-12-18T04:36:31.604Z,97033.94
2022-12-18T04:41:33.257Z,97023.75
2022-12-18T04:46:35.269Z,97035.00
2022-12-18T04:51:37.525Z,97035.47
2022-12-18T04:56:39.070Z,97037.63
2022-12-18T05:01:40.889Z,97041.63
2022-12-18T05:06:42.603Z,97045.94
2022-12-18T05:11:44.301Z,97045.94
2022-12-18T05:16:47.844Z,97044.34
2022-12-18T05:21:49.408Z,97044.34
2022-12-18T05:26:50.961Z,97061.50
2022-12-18T05:31:52.587Z,97049.97
2022-12-18T05:36:54.177Z,97054.53
2022-12-18T05:41:55.664Z,97065.78
2022-12-18T05:46:57.222Z,97057.75
2022-12-18T05:51:58.754Z,97063.59
2022-12-18T05:57:00.269Z,97072.47
2022-12-18T06:02:01.939Z,97072.19
2022-12-18T06:07:04.933Z,97077.53
2022-12-18T06:12:06.768Z,97081.31
2022-12-18T06:17:08.287Z,97084.56
2022-12-18T06:22:09.786Z,97084.84
2022-12-18T06:27:11.267Z,97087.00
2022-12-18T06:32:12.850Z,97087.25
2022-12-18T06:37:14.333Z,97091.31
2022-12-18T06:42:15.844Z,97099.88
2022-12-18T06:47:17.407Z,97101.75
2022-12-18T06:52:18.919Z,97118.94
2022-12-18T06:57:20.426Z,97123.78
2022-12-18T07:02:22.082Z,97129.13
2022-12-18T07:07:23.782Z,97124.03
2022-12-18T07:12:25.269Z,97133.19
2022-12-18T07:17:26.985Z,97135.59
2022-12-18T07:22:28.555Z,97130.53
2022-12-18T07:27:30.053Z,97108.31
2022-12-18T07:32:31.727Z,97109.66
2022-12-18T07:37:33.207Z,97112.03
2022-12-18T07:42:35.763Z,97119.56
2022-12-18T07:47:37.476Z,97117.69
2022-12-18T07:52:39.032Z,97136.47
2022-12-18T07:58:00.799Z,97135.09
2022-12-18T08:03:02.800Z,97130.25
2022-12-18T08:08:04.493Z,97138.28
2022-12-18T08:13:05.997Z,97146.84
2022-12-18T08:18:11.447Z,97157.00
2022-12-18T08:23:15.686Z,97161.84
2022-12-18T08:28:17.508Z,97173.88
2022-12-18T08:33:19.091Z,97170.63
2022-12-18T08:38:20.615Z,97166.88
2022-12-18T08:43:41.414Z,97170.06
2022-12-18T08:48:43.318Z,97168.72
2022-12-18T08:53:45.489Z,97175.69
2022-12-18T08:58:47.030Z,97183.44
2022-12-18T09:03:50.144Z,97178.59
2022-12-18T09:08:51.670Z,97177.25
2022-12-18T09:13:54.867Z,97176.97
2022-12-18T09:19:00.507Z,97179.34
2022-12-18T09:24:02.207Z,97178.78
2022-12-18T09:29:04.606Z,97176.38
2022-12-18T09:34:06.203Z,97175.78
2022-12-18T09:39:08.823Z,97169.06
2022-12-18T09:44:28.075Z,97156.97
2022-12-18T09:49:34.212Z,97172.50
2022-12-18T09:54:47.224Z,97160.94
2022-12-18T10:00:04.291Z,97152.59
2022-12-18T10:05:16.480Z,97148.03
2022-12-18T10:10:32.777Z,97146.94
2022-12-18T10:15:46.170Z,97150.72
2022-12-18T10:20:52.586Z,97149.06
2022-12-18T10:25:57.141Z,97142.84
2022-12-18T10:30:59.402Z,97135.31
2022-12-18T10:36:01.581Z,97140.94
2022-12-18T10:41:06.520Z,97135.25
2022-12-18T10:46:08.834Z,97126.41
2022-12-18T10:51:12.915Z,97117.56
2022-12-18T10:56:21.454Z,97124.78
2022-12-18T11:01:23.500Z,97125.78
2022-12-18T11:06:26.158Z,97124.16
2022-12-18T11:11:28.653Z,97122.53
2022-12-18T11:16:35.578Z,97143.44
2022-12-18T11:21:41.876Z,97133.72
2022-12-18T11:26:44.337Z,97133.66
2022-12-18T11:31:45.988Z,97137.16
2022-12-18T11:36:49.143Z,97126.66
2022-12-18T11:42:11.635Z,97130.88
2022-12-18T11:47:50.979Z,97123.84
2022-12-18T11:52:56.727Z,97139.97
2022-12-18T11:58:15.487Z,97135.66
2022-12-18T12:03:25.026Z,97133.50
2022-12-18T12:08:45.467Z,97114.63
2022-12-18T12:14:22.200Z,97100.13
2022-12-18T12:19:52.623Z,97090.47
2022-12-18T12:25:19.813Z,97085.66
2022-12-18T12:30:40.525Z,97074.72
2022-12-18T12:36:21.957Z,97088.66
2022-12-18T12:41:46.658Z,97083.00
2022-12-18T12:46:49.997Z,97087.28
2022-12-18T12:52:01.638Z,97083.50
2022-12-18T12:57:18.503Z,97078.41
2022-12-18T13:02:33.501Z,97074.94
2022-12-18T13:07:59.347Z,97079.72
2022-12-18T13:13:18.625Z,97094.47
2022-12-18T13:18:26.346Z,97092.28
2022-12-18T13:23:30.874Z,97090.91
2022-12-18T13:28:47.809Z,97090.91
2022-12-18T13:39:26.522Z,97088.81
2022-12-18T13:44:38.697Z,97072.97
2022-12-18T13:49:44.830Z,97069.50
2022-12-18T13:54:52.051Z,97068.19
2022-12-18T13:59:53.894Z,97070.66
2022-12-18T14:04:56.445Z,97072.81
2022-12-18T14:10:12.671Z,97075.00
2022-12-18T14:15:34.700Z,97073.47
2022-12-18T14:20:37.826Z,97064.31
2022-12-18T14:25:39.398Z,97060.59
2022-12-18T14:30:46.819Z,97051.03
2022-12-18T14:36:01.608Z,97055.34
2022-12-18T14:41:13.602Z,97042.06
2022-12-18T14:46:40.476Z,97049.97
2022-12-18T14:51:49.401Z,97050.59
2022-12-18T14:56:58.044Z,97064.88
2022-12-18T15:02:19.804Z,97072.19
2022-12-18T15:07:24.213Z,97078.66
2022-12-18T15:12:35.406Z,97074.44
2022-12-18T15:17:37.011Z,97073.41
2022-12-18T15:22:38.675Z,97070.75
2022-12-18T15:27:47.632Z,97065.75
2022-12-18T15:32:51.135Z,97063.91
2022-12-18T15:37:53.299Z,97069.31
2022-12-18T15:43:15.114Z,97077.94
2022-12-18T15:48:23.835Z,97076.13
2022-12-18T15:53:28.990Z,97077.25
2022-12-18T15:58:30.512Z,97075.41
2022-12-18T16:03:32.328Z,97079.72
2022-12-18T16:08:34.062Z,97089.41
2022-12-18T16:13:35.574Z,97080.59
2022-12-18T16:18:37.061Z,97080.66
2022-12-18T16:23:39.090Z,97064.31
2022-12-18T16:28:45.278Z,97066.75
2022-12-18T16:33:49.750Z,97068.38
2022-12-18T16:38:51.234Z,97067.06
2022-12-18T16:43:54.973Z,97059.31
2022-12-18T16:48:59.422Z,97058.78
2022-12-18T16:54:02.982Z,97058.25
2022-12-18T16:59:09.937Z,97057.50
2022-12-18T17:04:11.579Z,97059.66
2022-12-18T17:09:15.791Z,97049.50
2022-12-18T17:14:20.483Z,97050.88
2022-12-18T17:19:22.783Z,97056.78
2022-12-18T17:24:24.503Z,97050.91
2022-12-18T17:29:26.046Z,97056.81
2022-12-18T17:34:28.330Z,97058.44
2022-12-18T17:39:30.750Z,97047.19
2022-12-18T17:44:34.287Z,97042.41
2022-12-18T17:49:36.134Z,97046.16
2022-12-18T17:54:39.843Z,97045.91
2022-12-18T17:59:41.886Z,97038.69
2022-12-18T18:04:43.551Z,97037.38
2022-12-18T18:09:45.140Z,97026.97
2022-12-18T18:14:47.014Z,97014.94
2022-12-18T18:19:49.500Z,97028.34
2022-12-18T18:24:51.344Z,97025.13
2022-12-18T18:29:52.967Z,97036.41
2022-12-18T18:34:54.520Z,97035.31
2022-12-18T18:39:56.885Z,97035.31
2022-12-18T18:44:58.462Z,97046.03
2022-12-18T18:50:00.202Z,97043.09
2022-12-18T18:55:13.398Z,97042.00
2022-12-18T19:00:18.308Z,97037.19
2022-12-18T19:05:20.003Z,97023.00
2022-12-18T19:10:21.496Z,97024.06
2022-12-18T19:15:23.389Z,97011.78
2022-12-18T19:20:25.186Z,97010.44
2022-12-18T19:25:38.097Z,97009.66
2022-12-18T19:30:43.419Z,97010.22
2022-12-18T19:35:44.981Z,97019.84
2022-12-18T19:40:46.792Z,97012.66
2022-12-18T19:45:54.874Z,97009.19
2022-12-18T19:50:56.553Z,97004.09
2022-12-18T19:55:58.365Z,96996.59
2022-12-18T20:00:59.989Z,97005.41
2022-12-18T20:06:27.105Z,97006.50
2022-12-18T20:11:30.013Z,97000.63
2022-12-18T20:16:31.714Z,97008.38
2022-12-18T20:21:33.473Z,97003.84
2022-12-18T20:26:35.056Z,97007.03
2022-12-18T20:31:36.673Z,97005.94
2022-12-18T20:36:38.729Z,97004.59
2022-12-18T20:41:42.930Z,97000.34
2022-12-18T20:46:44.486Z,97002.75
2022-12-18T20:51:46.298Z,96997.69
2022-12-18T20:56:48.031Z,96992.59
2022-12-18T21:01:49.902Z,96999.84
2022-12-18T21:07:00.577Z,97003.28
2022-12-18T21:12:22.590Z,97002.50
2022-12-18T21:17:24.302Z,97005.97
2022-12-18T21:22:28.772Z,97005.72
2022-12-18T21:27:30.321Z,97001.69
2022-12-18T21:32:33.657Z,97002.22
2022-12-18T21:37:35.329Z,96982.41
2022-12-18T21:42:55.715Z,96973.28
2022-12-18T21:47:57.528Z,96953.25
2022-12-18T21:52:59.096Z,96965.56
2022-12-18T21:58:00.677Z,96967.94
2022-12-18T22:03:17.383Z,96972.22
2022-12-18T22:08:20.729Z,96969.78
2022-12-18T22:13:22.434Z,96959.84
2022-12-18T22:18:24.044Z,96949.66
2022-12-18T22:23:25.603Z,96951.78
2022-12-18T22:28:45.861Z,96944.59
2022-12-18T22:33:47.403Z,96938.13
2022-12-18T22:38:49.023Z,96927.44
2022-12-18T22:43:50.669Z,96922.59
2022-12-18T22:48:52.251Z,96917.78
2022-12-18T22:53:54.079Z,96908.66
2022-12-18T22:58:56.571Z,96912.41
2022-12-18T23:04:00.015Z,96890.69
2022-12-18T23:09:01.586Z,96897.34
2022-12-18T23:14:03.487Z,96901.34
2022-12-18T23:19:05.736Z,96903.19
2022-12-18T23:24:07.803Z,96907.47
2022-12-18T23:29:09.492Z,96933.38
2022-12-18T23:34:13.886Z,96915.69
2022-12-18T23:39:28.827Z,96919.47
2022-12-18T23:44:30.772Z,96907.41
2022-12-18T23:49:32.440Z,96899.84
2022-12-18T23:54:34.152Z,96862.09
2022-12-18T23:59:35.660Z,96878.16
